sensor_id;sensor_type;location;lat;lon;timestamp;P1;durP1;ratioP1;P2;durP2;ratioP2
8285;SDS011;4181;43.416;24.598;2023-12-22T00:01:40;4.03;;;3.40;;
8285;SDS011;4181;43.416;24.598;2023-12-22T00:04:05;3.97;;;3.20;;
8285;SDS011;4181;43.416;24.598;2023-12-22T00:06:32;6.67;;;2.93;;
8285;SDS011;4181;43.416;24.598;2023-12-22T00:08:57;7.73;;;3.50;;
8285;SDS011;4181;43.416;24.598;2023-12-22T00:11:23;5.40;;;3.77;;
8285;SDS011;4181;43.416;24.598;2023-12-22T00:13:49;5.10;;;2.90;;
8285;SDS011;4181;43.416;24.598;2023-12-22T00:16:14;4.80;;;3.47;;
8285;SDS011;4181;43.416;24.598;2023-12-22T00:18:39;4.80;;;3.40;;
8285;SDS011;4181;43.416;24.598;2023-12-22T00:21:09;6.93;;;3.37;;
8285;SDS011;4181;43.416;24.598;2023-12-22T00:23:36;3.87;;;2.87;;
8285;SDS011;4181;43.416;24.598;2023-12-22T00:26:03;4.53;;;3.77;;
8285;SDS011;4181;43.416;24.598;2023-12-22T00:28:30;6.17;;;3.60;;
8285;SDS011;4181;43.416;24.598;2023-12-22T00:30:57;5.80;;;3.17;;
8285;SDS011;4181;43.416;24.598;2023-12-22T00:33:23;4.57;;;2.50;;
8285;SDS011;4181;43.416;24.598;2023-12-22T00:35:48;2.77;;;2.47;;
8285;SDS011;4181;43.416;24.598;2023-12-22T00:38:14;5.37;;;3.23;;
8285;SDS011;4181;43.416;24.598;2023-12-22T00:40:39;3.70;;;3.33;;
8285;SDS011;4181;43.416;24.598;2023-12-22T00:43:05;6.00;;;3.47;;
8285;SDS011;4181;43.416;24.598;2023-12-22T00:45:30;4.30;;;2.80;;
8285;SDS011;4181;43.416;24.598;2023-12-22T00:47:56;3.97;;;2.83;;
8285;SDS011;4181;43.416;24.598;2023-12-22T00:50:21;5.57;;;3.20;;
8285;SDS011;4181;43.416;24.598;2023-12-22T00:52:47;5.13;;;2.50;;
8285;SDS011;4181;43.416;24.598;2023-12-22T00:55:12;6.23;;;3.03;;
8285;SDS011;4181;43.416;24.598;2023-12-22T00:57:39;5.63;;;2.93;;
8285;SDS011;4181;43.416;24.598;2023-12-22T01:00:04;6.20;;;2.57;;
8285;SDS011;4181;43.416;24.598;2023-12-22T01:02:34;7.83;;;3.67;;
8285;SDS011;4181;43.416;24.598;2023-12-22T01:04:59;3.13;;;2.57;;
8285;SDS011;4181;43.416;24.598;2023-12-22T01:07:25;3.60;;;2.93;;
8285;SDS011;4181;43.416;24.598;2023-12-22T01:09:50;4.30;;;3.00;;
8285;SDS011;4181;43.416;24.598;2023-12-22T01:12:16;2.43;;;2.17;;
8285;SDS011;4181;43.416;24.598;2023-12-22T01:14:41;4.70;;;2.80;;
8285;SDS011;4181;43.416;24.598;2023-12-22T01:17:10;6.20;;;2.60;;
8285;SDS011;4181;43.416;24.598;2023-12-22T01:19:35;3.17;;;2.60;;
8285;SDS011;4181;43.416;24.598;2023-12-22T01:22:01;5.73;;;2.37;;
8285;SDS011;4181;43.416;24.598;2023-12-22T01:24:27;4.20;;;2.57;;
8285;SDS011;4181;43.416;24.598;2023-12-22T01:26:52;6.50;;;2.20;;
8285;SDS011;4181;43.416;24.598;2023-12-22T01:29:18;5.77;;;3.07;;
8285;SDS011;4181;43.416;24.598;2023-12-22T01:31:43;4.57;;;2.27;;
8285;SDS011;4181;43.416;24.598;2023-12-22T01:34:09;3.70;;;1.57;;
8285;SDS011;4181;43.416;24.598;2023-12-22T01:36:35;5.70;;;2.73;;
8285;SDS011;4181;43.416;24.598;2023-12-22T01:39:02;3.13;;;2.87;;
8285;SDS011;4181;43.416;24.598;2023-12-22T01:41:29;12.30;;;4.93;;
8285;SDS011;4181;43.416;24.598;2023-12-22T01:43:54;5.93;;;3.67;;
8285;SDS011;4181;43.416;24.598;2023-12-22T01:46:20;3.87;;;2.33;;
8285;SDS011;4181;43.416;24.598;2023-12-22T01:48:46;4.77;;;2.53;;
8285;SDS011;4181;43.416;24.598;2023-12-22T01:51:11;2.50;;;2.13;;
8285;SDS011;4181;43.416;24.598;2023-12-22T01:53:37;2.07;;;1.63;;
8285;SDS011;4181;43.416;24.598;2023-12-22T01:56:03;2.80;;;1.93;;
8285;SDS011;4181;43.416;24.598;2023-12-22T01:58:29;3.20;;;2.03;;
8285;SDS011;4181;43.416;24.598;2023-12-22T02:00:59;2.73;;;1.60;;
8285;SDS011;4181;43.416;24.598;2023-12-22T02:03:26;2.30;;;2.00;;
8285;SDS011;4181;43.416;24.598;2023-12-22T02:05:52;2.23;;;2.00;;
8285;SDS011;4181;43.416;24.598;2023-12-22T02:08:18;2.20;;;1.80;;
8285;SDS011;4181;43.416;24.598;2023-12-22T02:10:44;7.00;;;3.50;;
8285;SDS011;4181;43.416;24.598;2023-12-22T02:13:10;3.00;;;2.17;;
8285;SDS011;4181;43.416;24.598;2023-12-22T02:15:36;3.07;;;2.47;;
8285;SDS011;4181;43.416;24.598;2023-12-22T02:20:45;9.10;;;5.60;;
8285;SDS011;4181;43.416;24.598;2023-12-22T02:23:11;9.73;;;4.80;;
8285;SDS011;4181;43.416;24.598;2023-12-22T02:25:37;6.97;;;3.70;;
8285;SDS011;4181;43.416;24.598;2023-12-22T02:28:03;2.40;;;1.93;;
8285;SDS011;4181;43.416;24.598;2023-12-22T02:30:37;2.70;;;2.00;;
8285;SDS011;4181;43.416;24.598;2023-12-22T02:33:07;5.03;;;2.20;;
8285;SDS011;4181;43.416;24.598;2023-12-22T02:35:36;2.17;;;1.77;;
8285;SDS011;4181;43.416;24.598;2023-12-22T02:38:03;4.47;;;2.67;;
8285;SDS011;4181;43.416;24.598;2023-12-22T02:40:30;6.17;;;3.13;;
8285;SDS011;4181;43.416;24.598;2023-12-22T02:42:57;8.40;;;4.30;;
8285;SDS011;4181;43.416;24.598;2023-12-22T02:45:23;16.20;;;6.87;;
8285;SDS011;4181;43.416;24.598;2023-12-22T02:47:49;14.20;;;6.53;;
8285;SDS011;4181;43.416;24.598;2023-12-22T02:50:15;11.13;;;4.57;;
8285;SDS011;4181;43.416;24.598;2023-12-22T02:52:41;4.00;;;2.90;;
8285;SDS011;4181;43.416;24.598;2023-12-22T02:55:07;4.40;;;2.63;;
8285;SDS011;4181;43.416;24.598;2023-12-22T02:57:33;3.20;;;2.73;;
8285;SDS011;4181;43.416;24.598;2023-12-22T02:59:59;6.00;;;2.93;;
8285;SDS011;4181;43.416;24.598;2023-12-22T03:02:25;6.17;;;4.20;;
8285;SDS011;4181;43.416;24.598;2023-12-22T03:04:50;18.93;;;11.10;;
8285;SDS011;4181;43.416;24.598;2023-12-22T03:07:16;25.17;;;12.07;;
8285;SDS011;4181;43.416;24.598;2023-12-22T03:09:42;21.07;;;10.13;;
8285;SDS011;4181;43.416;24.598;2023-12-22T03:12:08;21.03;;;12.23;;
8285;SDS011;4181;43.416;24.598;2023-12-22T03:14:35;17.23;;;10.40;;
8285;SDS011;4181;43.416;24.598;2023-12-22T03:17:01;18.57;;;6.73;;
8285;SDS011;4181;43.416;24.598;2023-12-22T03:19:30;16.63;;;8.07;;
8285;SDS011;4181;43.416;24.598;2023-12-22T03:21:57;9.93;;;6.67;;
8285;SDS011;4181;43.416;24.598;2023-12-22T03:24:22;12.13;;;7.07;;
8285;SDS011;4181;43.416;24.598;2023-12-22T03:26:48;15.33;;;7.00;;
8285;SDS011;4181;43.416;24.598;2023-12-22T03:29:14;7.50;;;3.93;;
8285;SDS011;4181;43.416;24.598;2023-12-22T03:31:40;7.30;;;4.77;;
8285;SDS011;4181;43.416;24.598;2023-12-22T03:34:06;6.80;;;4.03;;
8285;SDS011;4181;43.416;24.598;2023-12-22T03:36:31;4.30;;;3.40;;
8285;SDS011;4181;43.416;24.598;2023-12-22T03:38:57;6.83;;;5.87;;
8285;SDS011;4181;43.416;24.598;2023-12-22T03:41:22;7.83;;;5.90;;
8285;SDS011;4181;43.416;24.598;2023-12-22T03:43:48;8.10;;;5.53;;
8285;SDS011;4181;43.416;24.598;2023-12-22T03:46:13;8.07;;;3.43;;
8285;SDS011;4181;43.416;24.598;2023-12-22T03:48:39;3.57;;;2.83;;
8285;SDS011;4181;43.416;24.598;2023-12-22T03:51:04;3.60;;;3.10;;
8285;SDS011;4181;43.416;24.598;2023-12-22T03:53:30;8.60;;;4.83;;
8285;SDS011;4181;43.416;24.598;2023-12-22T03:55:55;5.57;;;3.90;;
8285;SDS011;4181;43.416;24.598;2023-12-22T03:58:21;4.47;;;2.90;;
8285;SDS011;4181;43.416;24.598;2023-12-22T04:00:46;9.83;;;4.97;;
8285;SDS011;4181;43.416;24.598;2023-12-22T04:03:12;7.23;;;4.30;;
8285;SDS011;4181;43.416;24.598;2023-12-22T04:05:38;3.50;;;2.30;;
8285;SDS011;4181;43.416;24.598;2023-12-22T04:08:03;3.30;;;2.30;;
8285;SDS011;4181;43.416;24.598;2023-12-22T04:10:29;2.83;;;2.07;;
8285;SDS011;4181;43.416;24.598;2023-12-22T04:12:55;2.23;;;1.93;;
8285;SDS011;4181;43.416;24.598;2023-12-22T04:15:20;3.10;;;2.03;;
8285;SDS011;4181;43.416;24.598;2023-12-22T04:17:46;1.60;;;1.50;;
8285;SDS011;4181;43.416;24.598;2023-12-22T04:20:11;1.20;;;1.10;;
8285;SDS011;4181;43.416;24.598;2023-12-22T04:22:38;2.13;;;1.30;;
8285;SDS011;4181;43.416;24.598;2023-12-22T04:25:04;6.30;;;1.70;;
8285;SDS011;4181;43.416;24.598;2023-12-22T04:27:31;1.73;;;1.30;;
8285;SDS011;4181;43.416;24.598;2023-12-22T04:29:56;2.03;;;1.60;;
8285;SDS011;4181;43.416;24.598;2023-12-22T04:32:22;1.37;;;1.27;;
8285;SDS011;4181;43.416;24.598;2023-12-22T04:34:47;2.50;;;1.77;;
8285;SDS011;4181;43.416;24.598;2023-12-22T04:37:13;2.20;;;1.67;;
8285;SDS011;4181;43.416;24.598;2023-12-22T04:39:38;2.43;;;1.67;;
8285;SDS011;4181;43.416;24.598;2023-12-22T04:42:03;1.37;;;1.20;;
8285;SDS011;4181;43.416;24.598;2023-12-22T04:44:29;3.43;;;2.10;;
8285;SDS011;4181;43.416;24.598;2023-12-22T04:46:56;2.80;;;1.63;;
8285;SDS011;4181;43.416;24.598;2023-12-22T04:49:21;3.27;;;2.00;;
8285;SDS011;4181;43.416;24.598;2023-12-22T04:51:46;4.73;;;1.57;;
8285;SDS011;4181;43.416;24.598;2023-12-22T04:54:12;3.97;;;2.37;;
8285;SDS011;4181;43.416;24.598;2023-12-22T04:56:37;3.13;;;2.00;;
8285;SDS011;4181;43.416;24.598;2023-12-22T04:59:03;6.93;;;4.20;;
8285;SDS011;4181;43.416;24.598;2023-12-22T05:01:28;1.97;;;1.60;;
8285;SDS011;4181;43.416;24.598;2023-12-22T05:03:53;1.87;;;1.60;;
8285;SDS011;4181;43.416;24.598;2023-12-22T05:06:19;4.23;;;2.00;;
8285;SDS011;4181;43.416;24.598;2023-12-22T05:08:45;1.80;;;1.60;;
8285;SDS011;4181;43.416;24.598;2023-12-22T05:11:11;3.40;;;1.67;;
8285;SDS011;4181;43.416;24.598;2023-12-22T05:13:37;1.50;;;1.40;;
8285;SDS011;4181;43.416;24.598;2023-12-22T05:16:04;1.83;;;1.40;;
8285;SDS011;4181;43.416;24.598;2023-12-22T05:18:30;2.30;;;2.10;;
8285;SDS011;4181;43.416;24.598;2023-12-22T05:20:55;2.20;;;2.00;;
8285;SDS011;4181;43.416;24.598;2023-12-22T05:23:21;4.20;;;2.00;;
8285;SDS011;4181;43.416;24.598;2023-12-22T05:25:47;2.00;;;1.43;;
8285;SDS011;4181;43.416;24.598;2023-12-22T05:28:12;2.57;;;1.63;;
8285;SDS011;4181;43.416;24.598;2023-12-22T05:30:37;3.07;;;2.30;;
8285;SDS011;4181;43.416;24.598;2023-12-22T05:33:03;2.50;;;2.27;;
8285;SDS011;4181;43.416;24.598;2023-12-22T05:35:28;2.87;;;1.83;;
8285;SDS011;4181;43.416;24.598;2023-12-22T05:37:54;2.17;;;1.60;;
8285;SDS011;4181;43.416;24.598;2023-12-22T05:40:19;1.83;;;1.67;;
8285;SDS011;4181;43.416;24.598;2023-12-22T05:42:45;2.47;;;1.77;;
8285;SDS011;4181;43.416;24.598;2023-12-22T05:45:11;1.97;;;1.70;;
8285;SDS011;4181;43.416;24.598;2023-12-22T05:47:37;1.77;;;1.47;;
8285;SDS011;4181;43.416;24.598;2023-12-22T05:50:03;2.63;;;1.90;;
8285;SDS011;4181;43.416;24.598;2023-12-22T05:52:29;5.23;;;3.13;;
8285;SDS011;4181;43.416;24.598;2023-12-22T05:54:54;4.50;;;1.83;;
8285;SDS011;4181;43.416;24.598;2023-12-22T05:57:20;5.40;;;2.33;;
8285;SDS011;4181;43.416;24.598;2023-12-22T05:59:45;4.20;;;2.67;;
8285;SDS011;4181;43.416;24.598;2023-12-22T06:02:11;5.90;;;3.03;;
8285;SDS011;4181;43.416;24.598;2023-12-22T06:04:36;4.57;;;3.00;;
8285;SDS011;4181;43.416;24.598;2023-12-22T06:07:02;3.27;;;2.47;;
8285;SDS011;4181;43.416;24.598;2023-12-22T06:09:27;4.43;;;2.77;;
8285;SDS011;4181;43.416;24.598;2023-12-22T06:11:53;7.83;;;2.97;;
8285;SDS011;4181;43.416;24.598;2023-12-22T06:14:18;3.03;;;2.10;;
8285;SDS011;4181;43.416;24.598;2023-12-22T06:16:44;5.77;;;3.00;;
8285;SDS011;4181;43.416;24.598;2023-12-22T06:19:09;3.17;;;2.20;;
8285;SDS011;4181;43.416;24.598;2023-12-22T06:21:38;2.43;;;1.87;;
8285;SDS011;4181;43.416;24.598;2023-12-22T06:24:04;2.17;;;1.90;;
8285;SDS011;4181;43.416;24.598;2023-12-22T06:26:30;3.40;;;2.33;;
8285;SDS011;4181;43.416;24.598;2023-12-22T06:28:55;3.27;;;2.63;;
8285;SDS011;4181;43.416;24.598;2023-12-22T06:31:21;3.20;;;2.50;;
8285;SDS011;4181;43.416;24.598;2023-12-22T06:33:48;6.80;;;2.50;;
8285;SDS011;4181;43.416;24.598;2023-12-22T06:36:24;4.80;;;2.70;;
8285;SDS011;4181;43.416;24.598;2023-12-22T06:38:50;4.03;;;2.33;;
8285;SDS011;4181;43.416;24.598;2023-12-22T06:41:26;2.90;;;2.43;;
8285;SDS011;4181;43.416;24.598;2023-12-22T06:43:59;1.63;;;1.53;;
8285;SDS011;4181;43.416;24.598;2023-12-22T06:46:24;2.33;;;1.77;;
8285;SDS011;4181;43.416;24.598;2023-12-22T06:48:51;4.07;;;2.50;;
8285;SDS011;4181;43.416;24.598;2023-12-22T06:51:17;1.60;;;1.50;;
8285;SDS011;4181;43.416;24.598;2023-12-22T06:53:44;3.80;;;2.67;;
8285;SDS011;4181;43.416;24.598;2023-12-22T06:56:20;2.30;;;2.07;;
8285;SDS011;4181;43.416;24.598;2023-12-22T06:58:47;2.20;;;1.93;;
8285;SDS011;4181;43.416;24.598;2023-12-22T07:01:17;4.63;;;1.97;;
8285;SDS011;4181;43.416;24.598;2023-12-22T07:03:47;3.67;;;1.83;;
8285;SDS011;4181;43.416;24.598;2023-12-22T07:06:20;1.40;;;1.20;;
8285;SDS011;4181;43.416;24.598;2023-12-22T07:11:37;1.90;;;1.80;;
8285;SDS011;4181;43.416;24.598;2023-12-22T07:14:03;2.10;;;1.50;;
8285;SDS011;4181;43.416;24.598;2023-12-22T07:16:29;3.40;;;2.83;;
8285;SDS011;4181;43.416;24.598;2023-12-22T07:18:54;2.00;;;1.80;;
8285;SDS011;4181;43.416;24.598;2023-12-22T07:21:20;2.13;;;1.93;;
8285;SDS011;4181;43.416;24.598;2023-12-22T07:23:46;2.60;;;1.60;;
8285;SDS011;4181;43.416;24.598;2023-12-22T07:26:11;1.63;;;1.53;;
8285;SDS011;4181;43.416;24.598;2023-12-22T07:28:37;4.73;;;1.70;;
8285;SDS011;4181;43.416;24.598;2023-12-22T07:31:03;2.00;;;1.77;;
8285;SDS011;4181;43.416;24.598;2023-12-22T07:33:28;6.43;;;2.53;;
8285;SDS011;4181;43.416;24.598;2023-12-22T07:35:54;4.60;;;2.17;;
8285;SDS011;4181;43.416;24.598;2023-12-22T07:38:20;2.60;;;1.90;;
8285;SDS011;4181;43.416;24.598;2023-12-22T07:40:45;1.77;;;1.67;;
8285;SDS011;4181;43.416;24.598;2023-12-22T07:43:10;1.77;;;1.50;;
8285;SDS011;4181;43.416;24.598;2023-12-22T07:45:36;2.23;;;1.80;;
8285;SDS011;4181;43.416;24.598;2023-12-22T07:48:02;7.37;;;2.10;;
8285;SDS011;4181;43.416;24.598;2023-12-22T07:50:28;5.27;;;2.10;;
8285;SDS011;4181;43.416;24.598;2023-12-22T07:52:54;2.27;;;2.07;;
8285;SDS011;4181;43.416;24.598;2023-12-22T07:55:19;2.73;;;1.77;;
8285;SDS011;4181;43.416;24.598;2023-12-22T07:57:45;2.90;;;1.40;;
8285;SDS011;4181;43.416;24.598;2023-12-22T08:00:11;2.93;;;1.80;;
8285;SDS011;4181;43.416;24.598;2023-12-22T08:02:37;2.33;;;1.80;;
8285;SDS011;4181;43.416;24.598;2023-12-22T08:05:03;2.13;;;1.77;;
8285;SDS011;4181;43.416;24.598;2023-12-22T08:07:28;5.10;;;2.30;;
8285;SDS011;4181;43.416;24.598;2023-12-22T08:09:54;2.30;;;2.10;;
8285;SDS011;4181;43.416;24.598;2023-12-22T08:12:23;1.40;;;1.30;;
8285;SDS011;4181;43.416;24.598;2023-12-22T08:14:49;2.63;;;1.80;;
8285;SDS011;4181;43.416;24.598;2023-12-22T08:17:14;4.83;;;1.70;;
8285;SDS011;4181;43.416;24.598;2023-12-22T08:19:40;1.73;;;1.63;;
8285;SDS011;4181;43.416;24.598;2023-12-22T08:22:09;1.90;;;1.73;;
8285;SDS011;4181;43.416;24.598;2023-12-22T08:24:35;3.97;;;2.60;;
8285;SDS011;4181;43.416;24.598;2023-12-22T08:27:01;2.17;;;2.07;;
8285;SDS011;4181;43.416;24.598;2023-12-22T08:29:27;2.97;;;2.37;;
8285;SDS011;4181;43.416;24.598;2023-12-22T08:31:52;2.00;;;1.80;;
8285;SDS011;4181;43.416;24.598;2023-12-22T08:34:18;1.93;;;1.60;;
8285;SDS011;4181;43.416;24.598;2023-12-22T08:36:44;1.97;;;1.77;;
8285;SDS011;4181;43.416;24.598;2023-12-22T08:39:11;3.70;;;2.27;;
8285;SDS011;4181;43.416;24.598;2023-12-22T08:41:37;7.10;;;3.23;;
8285;SDS011;4181;43.416;24.598;2023-12-22T08:44:04;2.40;;;2.03;;
8285;SDS011;4181;43.416;24.598;2023-12-22T08:46:31;3.90;;;1.60;;
8285;SDS011;4181;43.416;24.598;2023-12-22T08:48:57;3.07;;;1.63;;
8285;SDS011;4181;43.416;24.598;2023-12-22T08:51:24;1.80;;;1.63;;
8285;SDS011;4181;43.416;24.598;2023-12-22T08:53:50;4.17;;;2.40;;
8285;SDS011;4181;43.416;24.598;2023-12-22T08:56:21;3.17;;;1.93;;
8285;SDS011;4181;43.416;24.598;2023-12-22T08:58:47;2.70;;;2.03;;
8285;SDS011;4181;43.416;24.598;2023-12-22T09:01:15;3.17;;;1.73;;
8285;SDS011;4181;43.416;24.598;2023-12-22T09:03:42;2.17;;;1.97;;
8285;SDS011;4181;43.416;24.598;2023-12-22T09:06:20;2.53;;;2.03;;
8285;SDS011;4181;43.416;24.598;2023-12-22T09:08:50;2.03;;;1.73;;
8285;SDS011;4181;43.416;24.598;2023-12-22T09:11:16;2.00;;;1.80;;
8285;SDS011;4181;43.416;24.598;2023-12-22T09:13:45;1.97;;;1.77;;
8285;SDS011;4181;43.416;24.598;2023-12-22T09:16:10;3.27;;;1.80;;
8285;SDS011;4181;43.416;24.598;2023-12-22T09:18:36;2.57;;;2.00;;
8285;SDS011;4181;43.416;24.598;2023-12-22T09:21:02;3.13;;;2.17;;
8285;SDS011;4181;43.416;24.598;2023-12-22T09:23:28;2.50;;;1.77;;
8285;SDS011;4181;43.416;24.598;2023-12-22T09:25:54;1.90;;;1.77;;
8285;SDS011;4181;43.416;24.598;2023-12-22T09:28:23;1.73;;;1.63;;
8285;SDS011;4181;43.416;24.598;2023-12-22T09:30:49;1.97;;;1.70;;
8285;SDS011;4181;43.416;24.598;2023-12-22T09:33:23;1.97;;;1.80;;
8285;SDS011;4181;43.416;24.598;2023-12-22T09:35:49;8.57;;;4.20;;
8285;SDS011;4181;43.416;24.598;2023-12-22T09:38:14;4.07;;;3.03;;
8285;SDS011;4181;43.416;24.598;2023-12-22T09:40:39;5.20;;;2.57;;
8285;SDS011;4181;43.416;24.598;2023-12-22T09:43:07;2.83;;;1.70;;
8285;SDS011;4181;43.416;24.598;2023-12-22T09:45:33;1.97;;;1.50;;
8285;SDS011;4181;43.416;24.598;2023-12-22T09:48:03;3.07;;;2.10;;
8285;SDS011;4181;43.416;24.598;2023-12-22T09:50:31;2.53;;;1.50;;
8285;SDS011;4181;43.416;24.598;2023-12-22T09:52:57;2.00;;;1.53;;
8285;SDS011;4181;43.416;24.598;2023-12-22T09:55:25;2.57;;;1.33;;
8285;SDS011;4181;43.416;24.598;2023-12-22T09:57:52;2.37;;;1.70;;
8285;SDS011;4181;43.416;24.598;2023-12-22T10:00:17;3.07;;;1.93;;
8285;SDS011;4181;43.416;24.598;2023-12-22T10:02:43;2.60;;;1.73;;
8285;SDS011;4181;43.416;24.598;2023-12-22T10:05:13;1.50;;;1.40;;
8285;SDS011;4181;43.416;24.598;2023-12-22T10:07:39;1.33;;;1.23;;
8285;SDS011;4181;43.416;24.598;2023-12-22T10:10:07;1.13;;;1.07;;
8285;SDS011;4181;43.416;24.598;2023-12-22T10:12:34;1.40;;;1.30;;
8285;SDS011;4181;43.416;24.598;2023-12-22T10:15:03;1.33;;;1.17;;
8285;SDS011;4181;43.416;24.598;2023-12-22T10:17:30;1.30;;;1.23;;
8285;SDS011;4181;43.416;24.598;2023-12-22T10:19:56;1.70;;;1.27;;
8285;SDS011;4181;43.416;24.598;2023-12-22T10:22:21;4.80;;;1.50;;
8285;SDS011;4181;43.416;24.598;2023-12-22T10:24:49;1.33;;;1.10;;
8285;SDS011;4181;43.416;24.598;2023-12-22T10:27:17;0.90;;;0.90;;
8285;SDS011;4181;43.416;24.598;2023-12-22T10:29:50;1.00;;;0.90;;
8285;SDS011;4181;43.416;24.598;2023-12-22T10:32:22;0.70;;;0.70;;
8285;SDS011;4181;43.416;24.598;2023-12-22T10:34:48;0.80;;;0.80;;
8285;SDS011;4181;43.416;24.598;2023-12-22T10:37:16;2.47;;;0.97;;
8285;SDS011;4181;43.416;24.598;2023-12-22T10:39:45;0.97;;;0.90;;
8285;SDS011;4181;43.416;24.598;2023-12-22T10:42:13;1.03;;;0.73;;
8285;SDS011;4181;43.416;24.598;2023-12-22T10:44:39;2.77;;;1.10;;
8285;SDS011;4181;43.416;24.598;2023-12-22T10:47:06;1.53;;;1.17;;
8285;SDS011;4181;43.416;24.598;2023-12-22T10:49:32;1.43;;;1.10;;
8285;SDS011;4181;43.416;24.598;2023-12-22T10:52:02;0.80;;;0.80;;
8285;SDS011;4181;43.416;24.598;2023-12-22T10:54:27;0.70;;;0.70;;
8285;SDS011;4181;43.416;24.598;2023-12-22T10:56:57;0.90;;;0.90;;
8285;SDS011;4181;43.416;24.598;2023-12-22T10:59:25;0.83;;;0.83;;
8285;SDS011;4181;43.416;24.598;2023-12-22T11:01:56;0.83;;;0.83;;
8285;SDS011;4181;43.416;24.598;2023-12-22T11:04:23;1.00;;;1.00;;
8285;SDS011;4181;43.416;24.598;2023-12-22T11:06:54;1.97;;;1.30;;
8285;SDS011;4181;43.416;24.598;2023-12-22T11:09:29;1.23;;;1.13;;
8285;SDS011;4181;43.416;24.598;2023-12-22T11:11:58;1.30;;;1.20;;
8285;SDS011;4181;43.416;24.598;2023-12-22T11:14:29;2.00;;;1.30;;
8285;SDS011;4181;43.416;24.598;2023-12-22T11:16:57;2.10;;;1.50;;
8285;SDS011;4181;43.416;24.598;2023-12-22T11:19:26;1.30;;;1.20;;
8285;SDS011;4181;43.416;24.598;2023-12-22T11:21:52;1.63;;;1.40;;
8285;SDS011;4181;43.416;24.598;2023-12-22T11:24:25;1.57;;;1.10;;
8285;SDS011;4181;43.416;24.598;2023-12-22T11:26:57;1.20;;;1.10;;
8285;SDS011;4181;43.416;24.598;2023-12-22T11:29:27;1.13;;;1.03;;
8285;SDS011;4181;43.416;24.598;2023-12-22T11:31:54;1.00;;;1.00;;
8285;SDS011;4181;43.416;24.598;2023-12-22T11:34:23;1.73;;;1.63;;
8285;SDS011;4181;43.416;24.598;2023-12-22T11:36:59;1.20;;;1.10;;
8285;SDS011;4181;43.416;24.598;2023-12-22T11:39:28;1.10;;;1.00;;
8285;SDS011;4181;43.416;24.598;2023-12-22T11:41:56;1.30;;;1.20;;
8285;SDS011;4181;43.416;24.598;2023-12-22T11:44:22;1.60;;;1.20;;
8285;SDS011;4181;43.416;24.598;2023-12-22T11:47:02;1.87;;;1.10;;
8285;SDS011;4181;43.416;24.598;2023-12-22T11:49:31;0.97;;;0.97;;
8285;SDS011;4181;43.416;24.598;2023-12-22T11:51:59;1.30;;;1.17;;
8285;SDS011;4181;43.416;24.598;2023-12-22T11:54:43;1.67;;;1.57;;
8285;SDS011;4181;43.416;24.598;2023-12-22T11:59:55;1.33;;;1.00;;
8285;SDS011;4181;43.416;24.598;2023-12-22T12:02:27;4.33;;;2.03;;
8285;SDS011;4181;43.416;24.598;2023-12-22T12:05:03;2.30;;;1.33;;
8285;SDS011;4181;43.416;24.598;2023-12-22T12:07:45;2.10;;;1.60;;
8285;SDS011;4181;43.416;24.598;2023-12-22T12:13:15;2.07;;;1.60;;
8285;SDS011;4181;43.416;24.598;2023-12-22T12:15:46;1.53;;;1.17;;
8285;SDS011;4181;43.416;24.598;2023-12-22T12:18:12;1.90;;;1.20;;
8285;SDS011;4181;43.416;24.598;2023-12-22T12:20:38;2.20;;;1.33;;
8285;SDS011;4181;43.416;24.598;2023-12-22T12:23:07;2.40;;;1.00;;
8285;SDS011;4181;43.416;24.598;2023-12-22T12:25:33;1.10;;;1.00;;
8285;SDS011;4181;43.416;24.598;2023-12-22T12:28:02;1.50;;;1.20;;
8285;SDS011;4181;43.416;24.598;2023-12-22T12:31:09;1.63;;;1.30;;
8285;SDS011;4181;43.416;24.598;2023-12-22T12:33:36;1.37;;;1.07;;
8285;SDS011;4181;43.416;24.598;2023-12-22T12:36:03;3.43;;;2.17;;
8285;SDS011;4181;43.416;24.598;2023-12-22T12:41:36;1.00;;;1.00;;
8285;SDS011;4181;43.416;24.598;2023-12-22T12:44:06;1.37;;;1.23;;
8285;SDS011;4181;43.416;24.598;2023-12-22T12:46:36;1.00;;;1.00;;
8285;SDS011;4181;43.416;24.598;2023-12-22T12:49:03;1.30;;;1.17;;
8285;SDS011;4181;43.416;24.598;2023-12-22T12:51:42;1.40;;;1.30;;
8285;SDS011;4181;43.416;24.598;2023-12-22T12:54:19;1.50;;;1.40;;
8285;SDS011;4181;43.416;24.598;2023-12-22T12:56:53;1.20;;;1.10;;
8285;SDS011;4181;43.416;24.598;2023-12-22T12:59:23;1.23;;;1.13;;
8285;SDS011;4181;43.416;24.598;2023-12-22T13:01:49;1.27;;;1.10;;
8285;SDS011;4181;43.416;24.598;2023-12-22T13:04:17;3.63;;;2.80;;
8285;SDS011;4181;43.416;24.598;2023-12-22T13:06:52;7.57;;;4.10;;
8285;SDS011;4181;43.416;24.598;2023-12-22T13:09:20;2.57;;;1.10;;
8285;SDS011;4181;43.416;24.598;2023-12-22T13:11:56;1.60;;;1.50;;
8285;SDS011;4181;43.416;24.598;2023-12-22T13:14:22;2.80;;;1.33;;
8285;SDS011;4181;43.416;24.598;2023-12-22T13:16:51;1.43;;;1.10;;
8285;SDS011;4181;43.416;24.598;2023-12-22T13:19:20;0.90;;;0.90;;
8285;SDS011;4181;43.416;24.598;2023-12-22T13:21:45;3.70;;;1.63;;
8285;SDS011;4181;43.416;24.598;2023-12-22T13:24:13;3.33;;;1.00;;
8285;SDS011;4181;43.416;24.598;2023-12-22T13:26:41;5.07;;;1.00;;
8285;SDS011;4181;43.416;24.598;2023-12-22T13:29:07;1.43;;;1.23;;
8285;SDS011;4181;43.416;24.598;2023-12-22T13:31:35;2.30;;;1.87;;
8285;SDS011;4181;43.416;24.598;2023-12-22T13:34:03;1.57;;;1.47;;
8285;SDS011;4181;43.416;24.598;2023-12-22T13:39:50;6.40;;;2.87;;
8285;SDS011;4181;43.416;24.598;2023-12-22T13:42:19;3.00;;;2.23;;
8285;SDS011;4181;43.416;24.598;2023-12-22T13:44:46;4.00;;;1.97;;
8285;SDS011;4181;43.416;24.598;2023-12-22T13:47:17;8.13;;;4.13;;
8285;SDS011;4181;43.416;24.598;2023-12-22T13:49:44;3.63;;;1.93;;
8285;SDS011;4181;43.416;24.598;2023-12-22T13:52:26;2.20;;;1.70;;
8285;SDS011;4181;43.416;24.598;2023-12-22T13:54:53;2.80;;;1.50;;
8285;SDS011;4181;43.416;24.598;2023-12-22T13:57:21;1.30;;;1.20;;
8285;SDS011;4181;43.416;24.598;2023-12-22T13:59:47;1.97;;;1.80;;
8285;SDS011;4181;43.416;24.598;2023-12-22T14:02:13;3.07;;;2.13;;
8285;SDS011;4181;43.416;24.598;2023-12-22T14:04:39;3.20;;;1.93;;
8285;SDS011;4181;43.416;24.598;2023-12-22T14:07:04;2.53;;;1.40;;
8285;SDS011;4181;43.416;24.598;2023-12-22T14:09:30;2.63;;;1.53;;
8285;SDS011;4181;43.416;24.598;2023-12-22T14:11:58;2.13;;;1.27;;
8285;SDS011;4181;43.416;24.598;2023-12-22T14:14:24;4.60;;;1.53;;
8285;SDS011;4181;43.416;24.598;2023-12-22T14:16:50;3.00;;;2.00;;
8285;SDS011;4181;43.416;24.598;2023-12-22T14:19:15;3.73;;;1.70;;
8285;SDS011;4181;43.416;24.598;2023-12-22T14:21:41;6.13;;;2.73;;
8285;SDS011;4181;43.416;24.598;2023-12-22T14:24:06;2.63;;;2.40;;
8285;SDS011;4181;43.416;24.598;2023-12-22T14:26:32;7.60;;;2.57;;
8285;SDS011;4181;43.416;24.598;2023-12-22T14:28:59;5.47;;;2.70;;
8285;SDS011;4181;43.416;24.598;2023-12-22T14:31:25;7.57;;;3.37;;
8285;SDS011;4181;43.416;24.598;2023-12-22T14:33:50;4.57;;;2.63;;
8285;SDS011;4181;43.416;24.598;2023-12-22T14:36:16;3.50;;;2.40;;
8285;SDS011;4181;43.416;24.598;2023-12-22T14:38:42;2.23;;;1.70;;
8285;SDS011;4181;43.416;24.598;2023-12-22T14:41:07;43.53;;;14.70;;
8285;SDS011;4181;43.416;24.598;2023-12-22T14:43:33;7.30;;;3.23;;
8285;SDS011;4181;43.416;24.598;2023-12-22T14:45:59;3.77;;;2.43;;
8285;SDS011;4181;43.416;24.598;2023-12-22T14:48:24;4.57;;;2.40;;
8285;SDS011;4181;43.416;24.598;2023-12-22T14:50:50;3.13;;;1.43;;
8285;SDS011;4181;43.416;24.598;2023-12-22T14:53:15;1.60;;;1.50;;
8285;SDS011;4181;43.416;24.598;2023-12-22T14:55:40;1.47;;;1.37;;
8285;SDS011;4181;43.416;24.598;2023-12-22T14:58:06;1.87;;;1.50;;
8285;SDS011;4181;43.416;24.598;2023-12-22T15:00:33;4.43;;;2.67;;
8285;SDS011;4181;43.416;24.598;2023-12-22T15:02:59;3.30;;;2.03;;
8285;SDS011;4181;43.416;24.598;2023-12-22T15:05:25;6.70;;;3.73;;
8285;SDS011;4181;43.416;24.598;2023-12-22T15:07:54;6.83;;;4.53;;
8285;SDS011;4181;43.416;24.598;2023-12-22T15:10:20;7.67;;;3.80;;
8285;SDS011;4181;43.416;24.598;2023-12-22T15:12:46;4.97;;;3.27;;
8285;SDS011;4181;43.416;24.598;2023-12-22T15:15:12;5.00;;;2.43;;
8285;SDS011;4181;43.416;24.598;2023-12-22T15:17:38;3.17;;;2.67;;